createdAt,value
2022-11-10T00:00:42.936Z,6.83
2022-11-10T00:03:10.033Z,6.85
2022-11-10T00:05:37.522Z,6.88
2022-11-10T00:08:05.314Z,6.86
2022-11-10T00:10:31.897Z,6.79
2022-11-10T00:13:02.104Z,6.71
2022-11-10T00:15:51.674Z,6.66
2022-11-10T00:18:18.078Z,6.63
2022-11-10T00:20:44.471Z,6.63
2022-11-10T00:23:10.826Z,6.60
2022-11-10T00:25:37.212Z,6.55
2022-11-10T00:28:03.655Z,6.50
2022-11-10T00:30:30.042Z,6.46
2022-11-10T00:32:56.413Z,6.41
2022-11-10T00:35:22.876Z,6.37
2022-11-10T00:37:50.777Z,6.35
2022-11-10T00:40:17.364Z,6.31
2022-11-10T00:42:43.800Z,6.34
2022-11-10T00:45:10.348Z,6.36
2022-11-10T00:47:36.804Z,6.40
2022-11-10T00:50:03.226Z,6.38
2022-11-10T00:52:29.595Z,6.34
2022-11-10T00:54:55.969Z,6.29
2022-11-10T00:57:22.358Z,6.23
2022-11-10T00:59:48.795Z,6.19
2022-11-10T01:02:15.215Z,6.11
2022-11-10T01:04:41.584Z,6.08
2022-11-10T01:07:08.060Z,6.03
2022-11-10T01:09:34.492Z,6.00
2022-11-10T01:12:00.888Z,5.97
2022-11-10T01:14:27.261Z,5.94
2022-11-10T01:16:53.703Z,5.95
2022-11-10T01:19:20.086Z,5.94
2022-11-10T01:21:46.442Z,5.92
2022-11-10T01:24:12.853Z,5.90
2022-11-10T01:26:39.259Z,5.83
2022-11-10T01:29:05.640Z,5.78
2022-11-10T01:31:32.147Z,5.71
2022-11-10T01:33:59.098Z,5.66
2022-11-10T01:36:25.463Z,5.64
2022-11-10T01:38:51.847Z,5.59
2022-11-10T01:41:18.422Z,5.55
2022-11-10T01:43:44.870Z,5.52
2022-11-10T01:46:12.352Z,5.52
2022-11-10T01:48:44.740Z,5.51
2022-11-10T01:51:30.024Z,5.51
2022-11-10T01:53:58.780Z,5.49
2022-11-10T01:56:26.351Z,5.46
2022-11-10T01:58:58.652Z,5.46
2022-11-10T02:01:25.339Z,5.45
2022-11-10T02:03:51.685Z,5.48
2022-11-10T02:06:19.944Z,5.52
2022-11-10T02:08:47.047Z,5.53
2022-11-10T02:11:13.620Z,5.53
2022-11-10T02:13:40.205Z,5.50
2022-11-10T02:16:06.807Z,5.51
2022-11-10T02:18:33.171Z,5.54
2022-11-10T02:20:59.577Z,5.53
2022-11-10T02:23:33.593Z,5.50
2022-11-10T02:26:00.108Z,5.53
2022-11-10T02:28:27.197Z,5.56
2022-11-10T02:30:53.914Z,5.58
2022-11-10T02:33:21.186Z,5.56
2022-11-10T02:35:47.796Z,5.53
2022-11-10T02:38:14.366Z,5.50
2022-11-10T02:40:40.990Z,5.50
2022-11-10T02:43:09.520Z,5.52
2022-11-10T02:45:35.896Z,5.59
2022-11-10T02:48:02.323Z,5.65
2022-11-10T02:50:28.689Z,5.70
2022-11-10T02:52:55.061Z,5.73
2022-11-10T02:55:21.420Z,5.75
2022-11-10T02:57:47.801Z,5.73
2022-11-10T03:00:14.278Z,5.73
2022-11-10T03:02:40.658Z,5.77
2022-11-10T03:05:07.172Z,5.82
2022-11-10T03:07:33.577Z,5.85
2022-11-10T03:09:59.950Z,5.84
2022-11-10T03:12:26.342Z,5.83
2022-11-10T03:14:52.710Z,5.86
2022-11-10T03:17:19.352Z,5.89
2022-11-10T03:19:45.786Z,5.87
2022-11-10T03:22:12.172Z,5.89
2022-11-10T03:24:38.605Z,5.95
2022-11-10T03:27:04.964Z,5.99
2022-11-10T03:29:31.333Z,6.03
2022-11-10T03:31:57.773Z,6.03
2022-11-10T03:34:27.038Z,6.06
2022-11-10T03:36:57.111Z,6.13
2022-11-10T03:39:24.422Z,6.16
2022-11-10T03:41:50.853Z,6.16
2022-11-10T03:44:17.226Z,6.20
2022-11-10T03:46:43.703Z,6.23
2022-11-10T03:49:10.098Z,6.25
2022-11-10T03:51:36.594Z,6.29
2022-11-10T03:54:03.133Z,6.25
2022-11-10T03:56:29.554Z,6.28
2022-11-10T03:58:55.924Z,6.26
2022-11-10T04:01:23.831Z,6.29
2022-11-10T04:03:51.607Z,6.33
2022-11-10T04:06:37.311Z,6.38
2022-11-10T04:09:04.539Z,6.45
2022-11-10T04:11:50.554Z,6.51
2022-11-10T04:14:35.484Z,6.53
2022-11-10T04:17:02.380Z,6.55
2022-11-10T04:19:29.820Z,6.55
2022-11-10T04:21:56.280Z,6.57
2022-11-10T04:24:22.660Z,6.60
2022-11-10T04:26:49.632Z,6.61
2022-11-10T04:29:17.653Z,6.60
2022-11-10T04:32:02.579Z,6.59
2022-11-10T04:34:28.992Z,6.64
2022-11-10T04:36:55.377Z,6.68
2022-11-10T04:39:21.787Z,6.67
2022-11-10T04:41:48.839Z,6.69
2022-11-10T04:44:15.233Z,6.71
2022-11-10T04:46:42.663Z,6.71
2022-11-10T04:49:10.311Z,6.69
2022-11-10T04:51:38.486Z,6.67
2022-11-10T04:54:05.829Z,6.69
2022-11-10T04:56:32.264Z,6.67
2022-11-10T04:58:58.681Z,6.72
2022-11-10T05:01:26.819Z,6.75
2022-11-10T05:03:53.851Z,6.78
2022-11-10T05:06:20.543Z,6.82
2022-11-10T05:08:47.617Z,6.78
2022-11-10T05:11:14.333Z,6.78
2022-11-10T05:13:40.782Z,6.79
2022-11-10T05:16:07.725Z,6.82
2022-11-10T05:18:34.147Z,6.85
2022-11-10T05:21:00.514Z,6.87
2022-11-10T05:23:39.221Z,6.87
2022-11-10T05:26:10.386Z,6.90
2022-11-10T05:28:37.192Z,6.82
2022-11-10T05:31:03.643Z,6.78
2022-11-10T05:33:30.163Z,6.81
2022-11-10T05:35:56.616Z,6.86
2022-11-10T05:38:23.158Z,6.91
2022-11-10T05:40:49.610Z,6.96
2022-11-10T05:43:16.274Z,7.01
2022-11-10T05:45:42.694Z,7.04
2022-11-10T05:48:09.107Z,7.06
2022-11-10T05:50:35.507Z,7.05
2022-11-10T05:53:01.914Z,7.06
2022-11-10T05:55:28.869Z,7.05
2022-11-10T05:57:55.886Z,7.08
2022-11-10T06:00:25.441Z,7.12
2022-11-10T06:02:57.664Z,7.15
2022-11-10T06:05:28.316Z,7.17
2022-11-10T06:07:57.435Z,7.18
2022-11-10T06:10:24.442Z,7.22
2022-11-10T06:12:51.084Z,7.24
2022-11-10T06:15:17.956Z,7.27
2022-11-10T06:17:44.407Z,7.28
2022-11-10T06:20:10.878Z,7.24
2022-11-10T06:22:37.270Z,7.20
2022-11-10T06:25:03.822Z,7.24
2022-11-10T06:27:30.233Z,7.24
2022-11-10T06:29:56.639Z,7.23
2022-11-10T06:32:23.035Z,7.23
2022-11-10T06:34:49.464Z,7.20
2022-11-10T06:37:16.021Z,7.16
2022-11-10T06:39:42.413Z,7.13
2022-11-10T06:42:08.802Z,7.13
2022-11-10T06:44:35.180Z,7.19
2022-11-10T06:47:01.558Z,7.19
2022-11-10T06:49:28.009Z,7.15
2022-11-10T06:51:54.388Z,7.12
2022-11-10T06:54:20.795Z,7.08
2022-11-10T06:56:47.177Z,7.04
2022-11-10T06:59:13.567Z,7.02
2022-11-10T07:01:39.973Z,7.05
2022-11-10T07:04:19.399Z,7.08
2022-11-10T07:06:47.809Z,7.15
2022-11-10T07:09:14.853Z,7.16
2022-11-10T07:11:41.259Z,7.16
2022-11-10T07:14:07.763Z,7.14
2022-11-10T07:16:34.223Z,7.15
2022-11-10T07:19:00.656Z,7.11
2022-11-10T07:21:27.037Z,7.13
2022-11-10T07:23:53.434Z,7.18
2022-11-10T07:26:19.838Z,7.25
2022-11-10T07:28:46.270Z,7.27
2022-11-10T07:31:12.652Z,7.33
2022-11-10T07:33:39.061Z,7.40
2022-11-10T07:36:05.640Z,7.44
2022-11-10T07:38:32.038Z,7.47
2022-11-10T07:40:58.545Z,7.45
2022-11-10T07:43:25.816Z,7.44
2022-11-10T07:45:53.138Z,7.48
2022-11-10T07:48:19.814Z,7.52
2022-11-10T07:50:46.522Z,7.57
2022-11-10T07:53:14.429Z,7.63
2022-11-10T07:55:42.114Z,7.67
2022-11-10T07:58:08.669Z,7.66
2022-11-10T08:00:35.762Z,7.68
2022-11-10T08:03:03.091Z,7.70
2022-11-10T08:05:29.618Z,7.68
2022-11-10T08:07:56.181Z,7.71
2022-11-10T08:10:22.615Z,7.76
2022-11-10T08:12:55.945Z,7.83
2022-11-10T08:15:22.819Z,7.86
2022-11-10T08:17:49.477Z,7.88
2022-11-10T08:20:16.525Z,7.91
2022-11-10T08:22:43.290Z,7.85
2022-11-10T08:25:09.766Z,7.86
2022-11-10T08:27:36.162Z,7.87
2022-11-10T08:30:02.558Z,7.87
2022-11-10T08:32:28.964Z,7.89
2022-11-10T08:34:55.324Z,7.96
2022-11-10T08:37:21.728Z,8.04
2022-11-10T08:39:48.109Z,8.10
2022-11-10T08:42:14.470Z,8.13
2022-11-10T08:44:40.845Z,8.16
2022-11-10T08:47:07.240Z,8.15
2022-11-10T08:49:33.643Z,8.20
2022-11-10T08:52:00.002Z,8.22
2022-11-10T08:54:26.397Z,8.22
2022-11-10T08:56:52.779Z,8.27
2022-11-10T08:59:19.138Z,8.32
2022-11-10T09:01:45.563Z,8.33
2022-11-10T09:04:11.981Z,8.33
2022-11-10T09:06:38.446Z,8.33
2022-11-10T09:09:04.902Z,8.37
2022-11-10T09:11:31.320Z,8.44
2022-11-10T09:13:57.701Z,8.51
2022-11-10T09:16:24.129Z,8.57
2022-11-10T09:18:50.550Z,8.58
2022-11-10T09:21:16.921Z,8.60
2022-11-10T09:23:43.307Z,8.63
2022-11-10T09:26:09.669Z,8.63
2022-11-10T09:28:36.141Z,8.63
2022-11-10T09:31:02.632Z,8.66
2022-11-10T09:33:28.991Z,8.67
2022-11-10T09:35:59.596Z,8.71
2022-11-10T09:38:26.153Z,8.76
2022-11-10T09:41:03.252Z,8.81
2022-11-10T09:43:42.008Z,8.84
2022-11-10T09:46:21.174Z,8.87
2022-11-10T09:48:50.928Z,8.86
2022-11-10T09:51:22.054Z,8.87
2022-11-10T09:53:59.342Z,8.91
2022-11-10T09:56:33.385Z,8.95
2022-11-10T09:59:00.250Z,8.97
2022-11-10T10:01:38.168Z,9.01
2022-11-10T10:04:16.183Z,9.06
2022-11-10T10:07:09.718Z,9.12
2022-11-10T10:09:42.260Z,9.19
2022-11-10T10:12:14.977Z,9.17
2022-11-10T10:14:48.285Z,9.18
2022-11-10T10:17:26.926Z,9.18
2022-11-10T10:19:59.615Z,9.18
2022-11-10T10:22:29.003Z,9.20
2022-11-10T10:25:00.300Z,9.26
2022-11-10T10:27:27.164Z,9.28
2022-11-10T10:29:53.626Z,9.32
2022-11-10T10:32:21.672Z,9.33
2022-11-10T10:34:48.269Z,9.32
2022-11-10T10:37:18.905Z,9.33
2022-11-10T10:39:48.862Z,9.35
2022-11-10T10:42:27.478Z,9.38
2022-11-10T10:45:13.550Z,9.43
2022-11-10T10:47:40.278Z,9.48
2022-11-10T10:50:35.946Z,9.53
2022-11-10T10:53:16.012Z,9.57
2022-11-10T10:56:01.728Z,9.53
2022-11-10T10:58:28.186Z,9.56
2022-11-10T11:00:54.583Z,9.59
2022-11-10T11:03:25.723Z,9.59
2022-11-10T11:06:02.599Z,9.61
2022-11-10T11:08:29.055Z,9.62
2022-11-10T11:10:55.527Z,9.57
2022-11-10T11:13:26.166Z,9.53
2022-11-10T11:15:59.991Z,9.53
2022-11-10T11:18:27.676Z,9.57
2022-11-10T11:21:02.628Z,9.57
2022-11-10T11:23:28.974Z,9.59
2022-11-10T11:25:58.374Z,9.55
2022-11-10T11:28:43.545Z,9.51
2022-11-10T11:31:12.933Z,9.51
2022-11-10T11:33:47.686Z,9.54
2022-11-10T11:36:32.696Z,9.57
2022-11-10T11:39:07.944Z,9.58
2022-11-10T11:41:52.963Z,9.61
2022-11-10T11:44:25.863Z,9.61
2022-11-10T11:47:11.091Z,9.61
2022-11-10T11:49:37.494Z,9.62
2022-11-10T11:52:22.645Z,9.59
2022-11-10T11:55:00.697Z,9.62
2022-11-10T11:57:46.021Z,9.63
2022-11-10T12:00:15.484Z,9.63
2022-11-10T12:02:52.989Z,9.62
2022-11-10T12:05:38.242Z,9.59
2022-11-10T12:08:11.381Z,9.59
2022-11-10T12:10:47.212Z,9.59
2022-11-10T12:13:36.272Z,9.62
2022-11-10T12:16:23.598Z,9.60
2022-11-10T12:18:56.106Z,9.57
2022-11-10T12:21:28.350Z,9.61
2022-11-10T12:24:09.777Z,9.66
2022-11-10T12:26:45.678Z,9.72
2022-11-10T12:29:18.184Z,9.75
2022-11-10T12:31:45.931Z,9.82
2022-11-10T12:34:12.292Z,9.87
2022-11-10T12:36:39.185Z,9.84
2022-11-10T12:39:26.338Z,9.79
2022-11-10T12:41:55.986Z,9.82
2022-11-10T12:44:32.155Z,9.84
2022-11-10T12:47:01.152Z,9.89
2022-11-10T12:49:36.540Z,9.93
2022-11-10T12:52:03.037Z,9.93
2022-11-10T12:54:29.695Z,9.95
2022-11-10T12:57:02.030Z,9.94
2022-11-10T12:59:30.285Z,9.95
2022-11-10T13:02:06.136Z,9.92
2022-11-10T13:04:33.277Z,9.89
2022-11-10T13:07:02.328Z,9.92
2022-11-10T13:09:36.606Z,9.94
2022-11-10T13:12:17.005Z,9.96
2022-11-10T13:14:44.483Z,9.99
2022-11-10T13:17:30.916Z,10.01
2022-11-10T13:20:05.218Z,10.02
2022-11-10T13:22:44.789Z,10.05
2022-11-10T13:25:29.809Z,10.05
2022-11-10T13:27:56.243Z,10.05
2022-11-10T13:30:43.648Z,10.08
2022-11-10T13:33:25.305Z,10.11
2022-11-10T13:35:58.293Z,10.09
2022-11-10T13:38:38.144Z,10.10
2022-11-10T13:41:13.377Z,10.10
2022-11-10T13:43:47.570Z,10.04
2022-11-10T13:46:14.284Z,9.99
2022-11-10T13:48:40.617Z,10.04
2022-11-10T13:51:21.578Z,10.02
2022-11-10T13:54:06.789Z,10.05
2022-11-10T13:56:33.139Z,9.99
2022-11-10T13:58:59.877Z,9.93
2022-11-10T14:01:29.021Z,9.85
2022-11-10T14:03:57.448Z,9.82
2022-11-10T14:06:44.258Z,9.86
2022-11-10T14:09:10.672Z,9.86
2022-11-10T14:11:40.405Z,9.84
2022-11-10T14:14:17.059Z,9.88
2022-11-10T14:16:43.605Z,9.92
2022-11-10T14:19:21.322Z,9.97
2022-11-10T14:21:54.037Z,10.02
2022-11-10T14:24:28.784Z,10.04
2022-11-10T14:26:57.734Z,10.08
2022-11-10T14:29:24.085Z,10.10
2022-11-10T14:31:50.633Z,10.09
2022-11-10T14:34:18.154Z,10.09
2022-11-10T14:36:51.934Z,10.11
2022-11-10T14:39:19.574Z,10.12
2022-11-10T14:41:47.457Z,10.12
2022-11-10T14:44:20.031Z,10.13
2022-11-10T14:46:46.416Z,10.08
2022-11-10T14:49:12.793Z,10.09
2022-11-10T14:51:40.214Z,10.08
2022-11-10T14:54:11.234Z,10.10
2022-11-10T14:56:37.841Z,10.12
2022-11-10T14:59:06.261Z,10.12
2022-11-10T15:01:33.995Z,10.10
2022-11-10T15:04:05.131Z,10.08
2022-11-10T15:06:32.336Z,10.10
2022-11-10T15:08:58.932Z,10.06
2022-11-10T15:11:51.644Z,10.08
2022-11-10T15:14:30.206Z,10.05
2022-11-10T15:17:02.398Z,10.06
2022-11-10T15:19:35.409Z,10.09
2022-11-10T15:22:31.061Z,10.07
2022-11-10T15:25:00.018Z,10.12
2022-11-10T15:27:26.554Z,10.11
2022-11-10T15:29:53.533Z,10.12
2022-11-10T15:32:21.571Z,10.10
2022-11-10T15:34:49.105Z,10.12
2022-11-10T15:37:27.438Z,10.15
2022-11-10T15:40:15.402Z,10.16
2022-11-10T15:42:41.853Z,10.17
2022-11-10T15:45:08.407Z,10.15
2022-11-10T15:47:34.914Z,10.11
2022-11-10T15:50:01.974Z,10.09
2022-11-10T15:52:28.818Z,10.05
2022-11-10T15:54:55.244Z,9.93
2022-11-10T15:57:22.238Z,9.86
2022-11-10T15:59:48.615Z,9.90
2022-11-10T16:02:18.766Z,9.93
2022-11-10T16:04:45.163Z,9.94
2022-11-10T16:07:11.597Z,9.92
2022-11-10T16:09:38.117Z,9.91
2022-11-10T16:12:04.570Z,9.86
2022-11-10T16:14:30.955Z,9.84
2022-11-10T16:16:57.373Z,9.82
2022-11-10T16:19:23.754Z,9.82
2022-11-10T16:21:50.132Z,9.76
2022-11-10T16:24:16.521Z,9.72
2022-11-10T16:26:42.990Z,9.66
2022-11-10T16:29:10.999Z,9.60
2022-11-10T16:31:38.364Z,9.52
2022-11-10T16:34:04.808Z,9.48
2022-11-10T16:36:33.152Z,9.43
2022-11-10T16:39:03.738Z,9.37
2022-11-10T16:41:30.131Z,9.28
2022-11-10T16:43:56.496Z,9.20
2022-11-10T16:46:24.689Z,9.16
2022-11-10T16:48:52.701Z,9.12
2022-11-10T16:51:25.564Z,9.02
2022-11-10T16:53:53.136Z,8.93
2022-11-10T16:56:21.416Z,8.81
2022-11-10T16:58:47.778Z,8.72
2022-11-10T17:01:19.834Z,8.67
2022-11-10T17:03:51.291Z,8.64
2022-11-10T17:06:18.435Z,8.61
2022-11-10T17:08:46.571Z,8.52
2022-11-10T17:11:12.934Z,8.40
2022-11-10T17:13:39.411Z,8.31
2022-11-10T17:16:07.802Z,8.22
2022-11-10T17:18:35.141Z,8.15
2022-11-10T17:21:03.044Z,8.10
2022-11-10T17:23:29.446Z,8.02
2022-11-10T17:25:55.977Z,7.94
2022-11-10T17:28:22.448Z,7.88
2022-11-10T17:30:48.893Z,7.84
2022-11-10T17:33:15.380Z,7.78
2022-11-10T17:35:49.479Z,7.74
2022-11-10T17:38:19.998Z,7.64
2022-11-10T17:40:46.384Z,7.57
2022-11-10T17:43:13.625Z,7.51
2022-11-10T17:45:40.159Z,7.45
2022-11-10T17:48:07.097Z,7.38
2022-11-10T17:50:34.437Z,7.33
2022-11-10T17:53:01.456Z,7.30
2022-11-10T17:55:33.800Z,7.22
2022-11-10T17:58:00.734Z,7.17
2022-11-10T18:00:27.119Z,7.16
2022-11-10T18:02:55.449Z,7.15
2022-11-10T18:05:22.047Z,7.12
2022-11-10T18:07:51.716Z,7.14
2022-11-10T18:10:18.585Z,7.17
2022-11-10T18:12:45.214Z,7.15
2022-11-10T18:15:15.544Z,7.13
2022-11-10T18:17:42.229Z,7.15
2022-11-10T18:20:09.558Z,7.15
2022-11-10T18:22:36.437Z,7.14
2022-11-10T18:25:02.932Z,7.12
2022-11-10T18:27:29.378Z,7.13
2022-11-10T18:29:55.797Z,7.15
2022-11-10T18:32:23.340Z,7.17
2022-11-10T18:34:50.065Z,7.18
2022-11-10T18:37:17.029Z,7.17
2022-11-10T18:39:43.564Z,7.16
2022-11-10T18:42:09.975Z,7.19
2022-11-10T18:44:37.065Z,7.17
2022-11-10T18:47:04.126Z,7.12
2022-11-10T18:49:30.551Z,7.08
2022-11-10T18:51:57.392Z,7.08
2022-11-10T18:54:23.941Z,6.96
2022-11-10T18:56:50.875Z,6.89
2022-11-10T18:59:17.266Z,6.85
2022-11-10T19:01:43.726Z,6.89
2022-11-10T19:04:10.657Z,6.86
2022-11-10T19:06:37.120Z,6.83
2022-11-10T19:09:06.640Z,6.83
2022-11-10T19:11:33.933Z,6.81
2022-11-10T19:14:03.074Z,6.80
2022-11-10T19:16:30.084Z,6.79
2022-11-10T19:18:57.146Z,6.77
2022-11-10T19:21:24.575Z,6.71
2022-11-10T19:23:54.326Z,6.72
2022-11-10T19:26:22.846Z,6.73
2022-11-10T19:28:49.601Z,6.73
2022-11-10T19:31:17.352Z,6.70
2022-11-10T19:33:45.107Z,6.69
2022-11-10T19:36:13.645Z,6.70
2022-11-10T19:38:40.657Z,6.73
2022-11-10T19:41:08.523Z,6.76
2022-11-10T19:43:34.940Z,6.80
2022-11-10T19:46:02.928Z,6.80
2022-11-10T19:48:32.809Z,6.79
2022-11-10T19:51:00.321Z,6.77
2022-11-10T19:53:26.820Z,6.74
2022-11-10T19:55:53.367Z,6.71
2022-11-10T19:58:19.782Z,6.73
2022-11-10T20:00:47.475Z,6.73
2022-11-10T20:03:14.088Z,6.78
2022-11-10T20:05:40.993Z,6.78
2022-11-10T20:08:11.452Z,6.77
2022-11-10T20:10:39.293Z,6.73
2022-11-10T20:13:05.949Z,6.65
2022-11-10T20:15:32.454Z,6.67
2022-11-10T20:17:58.886Z,6.70
2022-11-10T20:20:25.309Z,6.73
2022-11-10T20:22:51.698Z,6.77
2022-11-10T20:25:18.081Z,6.78
2022-11-10T20:27:44.544Z,6.74
2022-11-10T20:30:11.023Z,6.71
2022-11-10T20:32:37.402Z,6.72
2022-11-10T20:35:03.988Z,6.73
2022-11-10T20:37:33.463Z,6.71
2022-11-10T20:40:00.052Z,6.61
2022-11-10T20:42:26.536Z,6.64
2022-11-10T20:44:52.912Z,6.65
2022-11-10T20:47:19.340Z,6.66
2022-11-10T20:49:45.794Z,6.68
2022-11-10T20:52:12.206Z,6.67
2022-11-10T20:54:38.681Z,6.69
2022-11-10T20:57:05.124Z,6.72
2022-11-10T20:59:31.494Z,6.72
2022-11-10T21:01:57.957Z,6.72
2022-11-10T21:04:24.362Z,6.71
2022-11-10T21:06:50.789Z,6.63
2022-11-10T21:09:17.209Z,6.62
2022-11-10T21:12:02.071Z,6.61
2022-11-10T21:14:28.483Z,6.62
2022-11-10T21:16:56.845Z,6.63
2022-11-10T21:19:23.320Z,6.64
2022-11-10T21:21:51.067Z,6.66
2022-11-10T21:24:17.508Z,6.68
2022-11-10T21:26:43.894Z,6.71
2022-11-10T21:29:11.646Z,6.70
2022-11-10T21:31:38.169Z,6.74
2022-11-10T21:34:04.630Z,6.77
2022-11-10T21:36:31.707Z,6.78
2022-11-10T21:38:58.797Z,6.79
2022-11-10T21:41:25.792Z,6.81
2022-11-10T21:43:52.192Z,6.78
2022-11-10T21:46:18.804Z,6.80
2022-11-10T21:48:45.206Z,6.82
2022-11-10T21:51:12.510Z,6.85
2022-11-10T21:53:42.379Z,6.88
2022-11-10T21:56:10.263Z,6.86
2022-11-10T21:58:36.880Z,6.78
2022-11-10T22:01:03.992Z,6.76
2022-11-10T22:03:30.990Z,6.80
2022-11-10T22:06:43.899Z,6.80
2022-11-10T22:09:10.343Z,6.78
2022-11-10T22:11:55.596Z,6.71
2022-11-10T22:14:40.579Z,6.66
2022-11-10T22:17:31.963Z,6.65
2022-11-10T22:19:58.358Z,6.64
2022-11-10T22:22:24.742Z,6.61
2022-11-10T22:24:51.134Z,6.59
2022-11-10T22:27:17.525Z,6.53
2022-11-10T22:29:43.877Z,6.54
2022-11-10T22:32:10.248Z,6.54
2022-11-10T22:34:36.621Z,6.54
2022-11-10T22:37:03.079Z,6.53
2022-11-10T22:39:49.534Z,6.54
2022-11-10T22:42:34.548Z,6.55
2022-11-10T22:45:01.030Z,6.56
2022-11-10T22:47:47.393Z,6.55
2022-11-10T22:50:13.783Z,6.53
2022-11-10T22:52:40.459Z,6.54
2022-11-10T22:55:07.004Z,6.57
2022-11-10T22:57:33.365Z,6.55
2022-11-10T22:59:59.720Z,6.52
2022-11-10T23:02:26.077Z,6.47
2022-11-10T23:04:52.514Z,6.47
2022-11-10T23:07:18.955Z,6.50
2022-11-10T23:09:47.188Z,6.49
2022-11-10T23:12:13.606Z,6.48
2022-11-10T23:14:39.996Z,6.44
2022-11-10T23:17:06.389Z,6.40
2022-11-10T23:19:32.781Z,6.33
2022-11-10T23:21:59.172Z,6.31
2022-11-10T23:24:25.534Z,6.33
2022-11-10T23:26:51.939Z,6.35
2022-11-10T23:29:18.317Z,6.33
2022-11-10T23:31:44.727Z,6.35
2022-11-10T23:34:11.140Z,6.35
2022-11-10T23:36:37.747Z,6.28
2022-11-10T23:39:04.124Z,6.26
2022-11-10T23:41:30.506Z,6.27
2022-11-10T23:43:56.856Z,6.26
2022-11-10T23:46:23.235Z,6.22
2022-11-10T23:48:49.638Z,6.23
2022-11-10T23:51:16.226Z,6.23
2022-11-10T23:53:42.795Z,6.25
2022-11-10T23:56:11.192Z,6.25
2022-11-10T23:58:37.968Z,6.23
